createdAt,value
2018-07-23T00:02:13.962Z,11.90
2018-07-23T00:04:44.078Z,12.10
2018-07-23T00:07:14.306Z,11.93
2018-07-23T00:09:44.588Z,11.43
2018-07-23T00:12:14.818Z,12.07
2018-07-23T00:14:44.859Z,12.47
2018-07-23T00:17:15.111Z,11.90
2018-07-23T00:19:48.091Z,12.10
2018-07-23T00:22:18.257Z,12.77
2018-07-23T00:24:48.501Z,11.10
2018-07-23T00:27:18.643Z,11.47
2018-07-23T00:29:48.732Z,11.70
2018-07-23T00:32:18.693Z,12.57
2018-07-23T00:34:49.206Z,11.73
2018-07-23T00:37:19.347Z,11.63
2018-07-23T00:39:49.415Z,12.10
2018-07-23T00:42:19.645Z,12.20
2018-07-23T00:44:49.707Z,12.07
2018-07-23T00:47:19.774Z,11.67
2018-07-23T00:49:49.963Z,11.77
2018-07-23T00:52:20.123Z,11.33
2018-07-23T00:54:50.301Z,11.27
2018-07-23T00:57:20.462Z,11.33
2018-07-23T00:59:50.872Z,12.23
2018-07-23T01:02:21.040Z,12.40
2018-07-23T01:04:51.169Z,11.57
2018-07-23T01:07:21.090Z,11.90
2018-07-23T01:09:51.623Z,11.87
2018-07-23T01:12:29.615Z,12.40
2018-07-23T01:14:59.534Z,12.53
2018-07-23T01:17:29.668Z,11.37
2018-07-23T01:20:00.591Z,12.17
2018-07-23T01:22:30.694Z,11.90
2018-07-23T01:25:00.889Z,11.87
2018-07-23T01:27:30.948Z,11.60
2018-07-23T01:30:01.214Z,11.40
2018-07-23T01:32:31.282Z,12.00
2018-07-23T01:35:01.504Z,13.40
2018-07-23T01:37:31.622Z,12.70
2018-07-23T01:40:01.785Z,12.37
2018-07-23T01:42:32.005Z,12.20
2018-07-23T01:45:02.165Z,11.73
2018-07-23T01:47:32.597Z,11.83
2018-07-23T01:50:02.777Z,12.73
2018-07-23T01:52:32.942Z,12.10
2018-07-23T01:55:03.060Z,12.30
2018-07-23T01:57:33.507Z,12.30
2018-07-23T02:00:03.461Z,12.63
2018-07-23T02:02:34.209Z,12.97
2018-07-23T02:05:04.745Z,13.33
2018-07-23T02:07:34.884Z,13.33
2018-07-23T02:10:05.028Z,12.90
2018-07-23T02:12:35.161Z,12.73
2018-07-23T02:15:05.151Z,12.63
2018-07-23T02:17:35.111Z,12.63
2018-07-23T02:20:05.863Z,13.03
2018-07-23T02:22:35.952Z,13.50
2018-07-23T02:25:06.084Z,13.23
2018-07-23T02:27:36.210Z,13.17
2018-07-23T02:30:07.054Z,14.58
2018-07-23T02:32:37.155Z,13.97
2018-07-23T02:35:07.437Z,14.17
2018-07-23T02:37:37.534Z,14.03
2018-07-23T02:40:08.710Z,14.17
2018-07-23T02:42:38.779Z,13.60
2018-07-23T02:45:12.902Z,14.20
2018-07-23T02:47:43.177Z,14.07
2018-07-23T02:50:13.344Z,14.20
2018-07-23T02:52:43.431Z,14.27
2018-07-23T02:55:13.540Z,14.30
2018-07-23T02:57:59.666Z,14.07
2018-07-23T03:00:29.794Z,14.87
2018-07-23T03:02:59.874Z,15.13
2018-07-23T03:05:31.112Z,14.87
2018-07-23T03:08:01.148Z,15.07
2018-07-23T03:10:31.420Z,14.40
2018-07-23T03:13:01.421Z,13.87
2018-07-23T03:15:31.696Z,14.23
2018-07-23T03:18:01.755Z,14.70
2018-07-23T03:20:31.930Z,14.83
2018-07-23T03:23:02.073Z,14.33
2018-07-23T03:25:32.146Z,15.37
2018-07-23T03:28:02.338Z,14.67
2018-07-23T03:30:32.457Z,14.43
2018-07-23T03:33:02.586Z,15.47
2018-07-23T03:35:32.921Z,15.40
2018-07-23T03:38:03.171Z,14.80
2018-07-23T03:40:33.207Z,15.07
2018-07-23T03:43:03.144Z,14.90
2018-07-23T03:45:33.977Z,14.37
2018-07-23T03:48:04.030Z,15.67
2018-07-23T03:50:34.102Z,15.97
2018-07-23T03:53:04.272Z,15.80
2018-07-23T03:55:34.663Z,15.93
2018-07-23T03:58:04.844Z,14.53
2018-07-23T04:00:34.885Z,14.77
2018-07-23T04:03:05.116Z,14.57
2018-07-23T04:05:35.269Z,14.97
2018-07-23T04:08:05.363Z,14.87
2018-07-23T04:13:21.621Z,13.27
2018-07-23T04:15:51.832Z,13.77
2018-07-23T04:18:21.792Z,13.40
2018-07-23T04:20:51.944Z,13.93
2018-07-23T04:23:22.810Z,13.43
2018-07-23T04:25:52.903Z,13.07
2018-07-23T04:28:22.956Z,14.00
2018-07-23T04:30:53.084Z,13.13
2018-07-23T04:33:23.358Z,12.80
2018-07-23T04:35:53.418Z,12.60
2018-07-23T04:38:23.535Z,12.27
2018-07-23T04:40:53.430Z,11.80
2018-07-23T04:43:23.843Z,11.63
2018-07-23T04:45:53.890Z,11.37
2018-07-23T04:48:23.992Z,12.50
2018-07-23T04:50:54.376Z,11.57
2018-07-23T04:53:24.652Z,12.00
2018-07-23T04:55:54.944Z,11.50
2018-07-23T04:58:24.874Z,11.23
2018-07-23T05:00:55.027Z,11.03
2018-07-23T05:03:24.936Z,11.37
2018-07-23T05:05:55.341Z,11.00
2018-07-23T05:08:25.537Z,11.33
2018-07-23T05:10:55.776Z,10.57
2018-07-23T05:13:25.832Z,10.43
2018-07-23T05:15:55.859Z,10.57
2018-07-23T05:18:25.993Z,10.97
2018-07-23T05:20:56.213Z,10.47
2018-07-23T05:23:26.705Z,10.27
2018-07-23T05:25:57.075Z,10.57
2018-07-23T05:28:26.968Z,10.90
2018-07-23T05:30:57.058Z,10.60
2018-07-23T05:33:27.050Z,10.77
2018-07-23T05:35:57.083Z,10.33
2018-07-23T05:38:28.089Z,9.97
2018-07-23T05:40:58.067Z,10.43
2018-07-23T05:43:27.992Z,10.30
2018-07-23T05:45:58.133Z,10.33
2018-07-23T05:48:28.144Z,9.70
2018-07-23T05:50:58.438Z,9.80
2018-07-23T05:53:28.665Z,9.17
2018-07-23T05:55:58.553Z,9.97
2018-07-23T05:58:28.629Z,9.80
2018-07-23T06:00:58.935Z,9.25
2018-07-23T06:03:29.248Z,9.30
2018-07-23T06:05:59.498Z,9.30
2018-07-23T06:08:29.428Z,9.33
2018-07-23T06:10:59.500Z,8.93
2018-07-23T06:13:29.615Z,9.03
2018-07-23T06:15:59.830Z,8.90
2018-07-23T06:18:30.287Z,8.27
2018-07-23T06:21:00.415Z,8.53
2018-07-23T06:23:31.634Z,8.77
2018-07-23T06:26:01.805Z,9.13
2018-07-23T06:28:32.050Z,8.90
2018-07-23T06:31:02.268Z,8.60
2018-07-23T06:33:32.607Z,9.17
2018-07-23T06:36:02.644Z,8.73
2018-07-23T06:38:33.031Z,8.40
2018-07-23T06:41:02.980Z,8.93
2018-07-23T06:43:33.177Z,8.73
2018-07-23T06:46:03.476Z,9.23
2018-07-23T06:48:34.872Z,9.17
2018-07-23T06:51:05.032Z,8.63
2018-07-23T06:53:35.227Z,9.17
2018-07-23T06:56:05.396Z,9.77
2018-07-23T06:58:35.491Z,9.10
2018-07-23T07:01:05.598Z,9.00
2018-07-23T07:03:35.629Z,9.57
2018-07-23T07:06:06.042Z,8.30
2018-07-23T07:08:36.300Z,8.60
2018-07-23T07:11:06.534Z,9.40
2018-07-23T07:13:37.713Z,8.10
2018-07-23T07:16:08.733Z,8.83
2018-07-23T07:18:39.016Z,8.10
2018-07-23T07:21:09.373Z,8.13
2018-07-23T07:23:39.747Z,8.10
2018-07-23T07:26:09.887Z,8.20
2018-07-23T07:28:39.889Z,8.47
2018-07-23T07:31:09.958Z,7.97
2018-07-23T07:33:40.108Z,7.80
2018-07-23T07:36:10.279Z,7.80
2018-07-23T07:38:40.570Z,7.77
2018-07-23T07:41:11.049Z,7.33
2018-07-23T07:43:41.166Z,7.60
2018-07-23T07:46:11.377Z,7.47
2018-07-23T07:48:41.605Z,7.40
2018-07-23T07:51:11.685Z,8.03
2018-07-23T07:53:41.857Z,6.80
2018-07-23T07:56:12.144Z,6.97
2018-07-23T07:58:42.520Z,6.63
2018-07-23T08:01:12.723Z,7.15
2018-07-23T08:03:42.851Z,6.77
2018-07-23T08:06:13.001Z,7.57
2018-07-23T08:08:43.462Z,6.93
2018-07-23T08:11:13.714Z,6.30
2018-07-23T08:13:46.716Z,6.30
2018-07-23T08:16:16.954Z,5.83
2018-07-23T08:18:47.235Z,6.53
2018-07-23T08:21:17.397Z,6.23
2018-07-23T08:23:47.688Z,6.40
2018-07-23T08:26:18.166Z,5.60
2018-07-23T08:28:48.570Z,6.30
2018-07-23T08:31:18.837Z,5.60
2018-07-23T08:33:49.018Z,5.67
2018-07-23T08:36:19.303Z,5.90
2018-07-23T08:38:49.626Z,6.53
2018-07-23T08:41:19.824Z,5.53
2018-07-23T08:43:50.426Z,6.07
2018-07-23T08:46:21.544Z,5.90
2018-07-23T08:48:51.948Z,6.00
2018-07-23T08:51:22.208Z,6.23
2018-07-23T08:53:52.286Z,6.30
2018-07-23T08:56:22.439Z,6.33
2018-07-23T08:58:52.485Z,6.47
2018-07-23T09:01:30.546Z,5.90
2018-07-23T09:04:00.665Z,6.13
2018-07-23T09:06:30.754Z,5.93
2018-07-23T09:09:01.204Z,5.87
2018-07-23T09:11:31.225Z,6.50
2018-07-23T09:14:02.244Z,6.70
2018-07-23T09:16:32.583Z,6.10
2018-07-23T09:19:02.809Z,6.03
2018-07-23T09:21:36.279Z,6.00
2018-07-23T09:24:06.588Z,5.83
2018-07-23T09:26:37.092Z,6.67
2018-07-23T09:29:07.398Z,5.20
2018-07-23T09:31:37.524Z,6.20
2018-07-23T09:34:07.740Z,6.17
2018-07-23T09:36:37.795Z,6.27
2018-07-23T09:39:10.197Z,6.53
2018-07-23T09:41:40.545Z,5.73
2018-07-23T09:44:10.989Z,5.63
2018-07-23T09:46:41.137Z,5.70
2018-07-23T09:49:11.128Z,6.40
2018-07-23T09:51:41.860Z,5.63
2018-07-23T09:54:11.997Z,6.30
2018-07-23T09:56:43.429Z,6.53
2018-07-23T09:59:13.843Z,5.50
2018-07-23T10:01:43.965Z,6.20
2018-07-23T10:04:14.274Z,6.20
2018-07-23T10:06:44.622Z,6.20
2018-07-23T10:09:15.885Z,6.00
2018-07-23T10:11:45.838Z,6.00
2018-07-23T10:14:16.046Z,6.17
2018-07-23T10:16:46.255Z,5.73
2018-07-23T10:19:16.256Z,6.10
2018-07-23T10:21:46.418Z,6.00
2018-07-23T10:24:16.670Z,6.00
2018-07-23T10:26:46.939Z,6.07
2018-07-23T10:29:17.200Z,5.80
2018-07-23T10:31:47.281Z,5.60
2018-07-23T10:34:19.290Z,5.57
2018-07-23T10:36:49.585Z,5.93
2018-07-23T10:39:19.610Z,6.03
2018-07-23T10:41:49.776Z,5.40
2018-07-23T10:44:19.660Z,5.80
2018-07-23T10:46:50.722Z,5.57
2018-07-23T10:49:20.716Z,5.77
2018-07-23T10:51:50.939Z,5.93
2018-07-23T10:54:21.120Z,5.47
2018-07-23T10:56:51.310Z,5.50
2018-07-23T10:59:21.743Z,4.73
2018-07-23T11:01:51.732Z,5.57
2018-07-23T11:04:21.953Z,5.00
2018-07-23T11:06:52.164Z,5.27
2018-07-23T11:09:22.480Z,4.93
2018-07-23T11:11:53.617Z,4.80
2018-07-23T11:14:24.898Z,4.73
2018-07-23T11:16:55.781Z,5.50
2018-07-23T11:19:27.007Z,5.20
2018-07-23T11:21:57.231Z,5.57
2018-07-23T11:24:27.396Z,5.03
2018-07-23T11:26:57.701Z,4.90
2018-07-23T11:29:27.653Z,5.17
2018-07-23T11:31:57.875Z,5.30
2018-07-23T11:34:28.254Z,4.70
2018-07-23T11:36:58.394Z,5.03
2018-07-23T11:39:28.613Z,4.43
2018-07-23T11:41:58.549Z,4.27
2018-07-23T11:44:28.790Z,4.95
2018-07-23T11:46:58.628Z,4.87
2018-07-23T11:49:29.852Z,4.70
2018-07-23T11:51:59.809Z,5.08
2018-07-23T11:54:31.102Z,4.95
2018-07-23T11:57:02.578Z,5.03
2018-07-23T11:59:32.956Z,4.72
2018-07-23T12:02:06.176Z,4.80
2018-07-23T12:04:36.515Z,4.67
2018-07-23T12:07:07.013Z,4.80
2018-07-23T12:09:37.207Z,4.55
2018-07-23T12:12:07.857Z,4.70
2018-07-23T12:14:39.337Z,4.25
2018-07-23T12:17:09.404Z,5.78
2018-07-23T12:19:39.640Z,4.15
2018-07-23T12:22:09.829Z,4.95
2018-07-23T12:24:40.032Z,4.40
2018-07-23T12:27:10.193Z,4.50
2018-07-23T12:29:40.085Z,4.45
2018-07-23T12:32:10.559Z,4.20
2018-07-23T12:34:40.596Z,4.20
2018-07-23T12:37:10.879Z,4.80
2018-07-23T12:39:41.019Z,3.95
2018-07-23T12:42:10.939Z,4.42
2018-07-23T12:44:41.009Z,4.30
2018-07-23T12:47:12.027Z,3.92
2018-07-23T12:49:42.325Z,4.17
2018-07-23T12:52:12.186Z,4.40
2018-07-23T12:54:42.282Z,3.80
2018-07-23T12:57:12.243Z,4.08
2018-07-23T12:59:42.492Z,4.03
2018-07-23T13:02:12.747Z,4.20
2018-07-23T13:04:42.836Z,3.80
2018-07-23T13:07:13.009Z,4.37
2018-07-23T13:09:43.134Z,4.50
2018-07-23T13:12:13.327Z,4.00
2018-07-23T13:14:43.550Z,4.20
2018-07-23T13:17:14.081Z,4.00
2018-07-23T13:19:44.125Z,4.00
2018-07-23T13:22:15.812Z,4.22
2018-07-23T13:24:45.834Z,4.53
2018-07-23T13:27:16.127Z,4.20
2018-07-23T13:29:48.141Z,4.58
2018-07-23T13:32:18.280Z,4.72
2018-07-23T13:34:48.638Z,4.60
2018-07-23T13:37:18.934Z,5.20
2018-07-23T13:39:49.296Z,5.50
2018-07-23T13:42:19.417Z,4.28
2018-07-23T13:44:49.598Z,4.83
2018-07-23T13:47:19.975Z,4.92
2018-07-23T13:49:49.756Z,5.00
2018-07-23T13:52:20.155Z,4.72
2018-07-23T13:54:50.375Z,4.87
2018-07-23T13:57:21.540Z,4.80
2018-07-23T13:59:51.956Z,4.67
2018-07-23T14:02:22.910Z,4.67
2018-07-23T14:04:53.500Z,4.53
2018-07-23T14:07:23.680Z,4.72
2018-07-23T14:09:53.815Z,5.05
2018-07-23T14:12:24.681Z,4.90
2018-07-23T14:14:54.667Z,4.47
2018-07-23T14:17:24.944Z,4.90
2018-07-23T14:19:55.336Z,5.08
2018-07-23T14:22:25.636Z,4.80
2018-07-23T14:24:55.946Z,4.70
2018-07-23T14:27:26.308Z,5.30
2018-07-23T14:29:56.519Z,5.50
2018-07-23T14:32:26.788Z,5.03
2018-07-23T14:34:56.928Z,5.30
2018-07-23T14:37:27.247Z,5.28
2018-07-23T14:39:57.509Z,5.22
2018-07-23T14:42:27.630Z,5.28
2018-07-23T14:44:58.080Z,5.05
2018-07-23T14:47:28.198Z,5.00
2018-07-23T14:49:59.379Z,5.08
2018-07-23T14:52:29.514Z,5.12
2018-07-23T14:54:59.741Z,5.40
2018-07-23T14:57:29.725Z,5.35
2018-07-23T15:00:00.212Z,5.50
2018-07-23T15:02:30.436Z,5.60
2018-07-23T15:05:00.688Z,5.45
2018-07-23T15:07:30.817Z,4.72
2018-07-23T15:10:01.050Z,5.35
2018-07-23T15:12:31.368Z,5.28
2018-07-23T15:15:01.321Z,5.10
2018-07-23T15:17:31.595Z,5.08
2018-07-23T15:20:01.623Z,4.95
2018-07-23T15:22:31.982Z,5.70
2018-07-23T15:25:02.155Z,5.78
2018-07-23T15:27:32.428Z,5.65
2018-07-23T15:30:02.709Z,5.75
2018-07-23T15:32:33.198Z,5.45
2018-07-23T15:35:03.352Z,4.85
2018-07-23T15:37:33.186Z,5.58
2018-07-23T15:40:04.821Z,5.40
2018-07-23T15:42:35.102Z,5.67
2018-07-23T15:45:05.513Z,5.45
2018-07-23T15:47:35.556Z,5.67
2018-07-23T15:50:05.972Z,5.42
2018-07-23T15:52:36.238Z,5.17
2018-07-23T15:55:06.402Z,5.60
2018-07-23T15:57:36.577Z,5.75
2018-07-23T16:00:07.238Z,17.23
2018-07-23T16:02:37.471Z,5.42
2018-07-23T16:05:07.866Z,5.90
2018-07-23T16:07:38.190Z,5.12
2018-07-23T16:10:09.240Z,5.35
2018-07-23T16:12:39.356Z,5.67
2018-07-23T16:15:09.887Z,5.53
2018-07-23T16:17:40.118Z,5.70
2018-07-23T16:20:10.539Z,5.78
2018-07-23T16:22:41.599Z,5.58
2018-07-23T16:25:11.839Z,5.65
2018-07-23T16:27:43.106Z,5.17
2018-07-23T16:30:13.211Z,8.20
2018-07-23T16:32:44.312Z,5.30
2018-07-23T16:35:14.772Z,5.33
2018-07-23T16:37:45.869Z,5.78
2018-07-23T16:40:16.145Z,5.10
2018-07-23T16:42:46.216Z,9.15
2018-07-23T16:45:17.303Z,5.50
2018-07-23T16:47:47.530Z,5.50
2018-07-23T16:50:17.664Z,4.97
2018-07-23T16:52:48.118Z,5.20
2018-07-23T16:55:18.256Z,5.78
2018-07-23T16:57:48.200Z,5.72
2018-07-23T17:00:18.398Z,5.72
2018-07-23T17:02:48.396Z,5.37
2018-07-23T17:05:18.755Z,5.60
2018-07-23T17:07:48.928Z,5.10
2018-07-23T17:10:20.182Z,5.67
2018-07-23T17:12:50.463Z,5.85
2018-07-23T17:15:20.485Z,5.97
2018-07-23T17:17:50.793Z,5.80
2018-07-23T17:20:21.193Z,6.30
2018-07-23T17:22:51.345Z,6.25
2018-07-23T17:25:21.150Z,6.83
2018-07-23T17:27:51.217Z,6.12
2018-07-23T17:30:21.290Z,5.97
2018-07-23T17:32:51.497Z,6.50
2018-07-23T17:35:21.701Z,5.70
2018-07-23T17:37:51.971Z,5.90
2018-07-23T17:40:22.283Z,6.40
2018-07-23T17:42:52.554Z,6.83
2018-07-23T17:45:22.839Z,6.67
2018-07-23T17:47:53.105Z,6.58
2018-07-23T17:50:23.566Z,6.70
2018-07-23T17:52:53.801Z,7.50
2018-07-23T17:55:23.841Z,6.87
2018-07-23T17:57:53.979Z,6.93
2018-07-23T18:00:24.383Z,6.73
2018-07-23T18:02:54.434Z,7.33
2018-07-23T18:05:24.761Z,7.17
2018-07-23T18:07:54.984Z,8.03
2018-07-23T18:10:24.893Z,9.40
2018-07-23T18:12:55.121Z,17.43
2018-07-23T18:15:25.148Z,33.50
2018-07-23T18:17:55.304Z,18.87
2018-07-23T18:20:25.479Z,12.63
2018-07-23T18:22:55.352Z,35.47
2018-07-23T18:25:25.641Z,19.47
2018-07-23T18:27:56.698Z,13.43
2018-07-23T18:30:26.854Z,34.47
2018-07-23T18:32:56.933Z,18.73
2018-07-23T18:35:27.082Z,13.63
2018-07-23T18:37:57.227Z,11.30
2018-07-23T18:40:27.354Z,12.60
2018-07-23T18:42:57.474Z,10.27
2018-07-23T18:45:27.839Z,9.70
2018-07-23T18:47:58.096Z,9.80
2018-07-23T18:50:28.171Z,11.60
2018-07-23T18:52:58.619Z,14.57
2018-07-23T18:55:29.156Z,15.93
2018-07-23T18:57:59.421Z,12.73
2018-07-23T19:00:29.332Z,12.37
2018-07-23T19:02:59.532Z,12.30
2018-07-23T19:05:29.711Z,12.03
2018-07-23T19:07:59.972Z,12.00
2018-07-23T19:10:30.055Z,12.00
2018-07-23T19:13:00.426Z,11.47
2018-07-23T19:15:30.579Z,11.10
2018-07-23T19:18:00.848Z,11.87
2018-07-23T19:20:31.062Z,11.83
2018-07-23T19:23:01.411Z,12.30
2018-07-23T19:25:31.759Z,11.13
2018-07-23T19:28:02.922Z,11.60
2018-07-23T19:30:33.110Z,12.33
2018-07-23T19:33:03.525Z,12.60
2018-07-23T19:35:33.836Z,13.00
2018-07-23T19:38:05.027Z,12.40
2018-07-23T19:40:35.372Z,12.57
2018-07-23T19:43:05.839Z,13.13
2018-07-23T19:45:35.989Z,11.80
2018-07-23T19:48:06.410Z,12.67
2018-07-23T19:50:36.591Z,12.27
2018-07-23T19:53:06.845Z,12.17
2018-07-23T19:55:37.140Z,13.17
2018-07-23T19:58:07.253Z,13.23
2018-07-23T20:00:37.646Z,13.17
2018-07-23T20:03:08.928Z,13.17
2018-07-23T20:05:39.132Z,14.00
2018-07-23T20:08:09.657Z,13.47
2018-07-23T20:10:40.848Z,13.57
2018-07-23T20:13:11.178Z,13.20
2018-07-23T20:15:41.366Z,13.00
2018-07-23T20:18:11.529Z,13.30
2018-07-23T20:20:41.789Z,13.50
2018-07-23T20:23:11.854Z,14.23
2018-07-23T20:25:42.183Z,13.63
2018-07-23T20:28:12.154Z,14.07
2018-07-23T20:30:42.625Z,14.90
2018-07-23T20:33:12.850Z,14.77
2018-07-23T20:35:44.084Z,13.97
2018-07-23T20:38:14.225Z,15.40
2018-07-23T20:40:44.440Z,14.93
2018-07-23T20:43:14.735Z,15.17
2018-07-23T20:45:45.809Z,14.40
2018-07-23T20:48:15.889Z,15.37
2018-07-23T20:50:46.380Z,14.70
2018-07-23T20:53:16.492Z,16.10
2018-07-23T20:55:47.355Z,15.87
2018-07-23T20:58:17.613Z,16.67
2018-07-23T21:00:47.960Z,16.83
2018-07-23T21:03:18.042Z,17.37
2018-07-23T21:05:48.484Z,17.00
2018-07-23T21:08:18.883Z,17.17
2018-07-23T21:10:49.420Z,16.20
2018-07-23T21:13:19.692Z,16.67
2018-07-23T21:15:50.220Z,16.00
2018-07-23T21:18:20.491Z,17.63
2018-07-23T21:20:50.432Z,18.93
2018-07-23T21:23:20.859Z,17.80
2018-07-23T21:25:52.042Z,16.63
2018-07-23T21:28:22.324Z,16.47
2018-07-23T21:30:52.305Z,16.83
2018-07-23T21:33:22.548Z,18.47
2018-07-23T21:35:52.669Z,18.00
2018-07-23T21:38:22.856Z,16.77
2018-07-23T21:40:53.632Z,16.23
2018-07-23T21:43:23.808Z,16.37
2018-07-23T21:45:54.172Z,16.63
2018-07-23T21:48:24.419Z,15.57
2018-07-23T21:50:54.611Z,16.10
2018-07-23T21:53:24.599Z,16.50
2018-07-23T21:55:54.641Z,16.77
2018-07-23T21:58:24.924Z,17.17
2018-07-23T22:00:55.057Z,15.90
2018-07-23T22:03:25.066Z,17.70
2018-07-23T22:05:55.476Z,17.33
2018-07-23T22:08:25.661Z,16.97
2018-07-23T22:10:55.922Z,16.73
2018-07-23T22:13:26.102Z,17.20
2018-07-23T22:15:56.320Z,17.60
2018-07-23T22:18:26.493Z,17.07
2018-07-23T22:21:03.072Z,16.47
2018-07-23T22:23:33.397Z,15.23
2018-07-23T22:26:03.314Z,15.80
2018-07-23T22:28:33.444Z,14.93
2018-07-23T22:31:04.776Z,15.07
2018-07-23T22:33:34.947Z,15.73
2018-07-23T22:36:05.290Z,16.10
2018-07-23T22:38:35.478Z,16.40
2018-07-23T22:41:05.591Z,16.00
2018-07-23T22:43:35.851Z,16.03
2018-07-23T22:46:05.851Z,15.83
2018-07-23T22:48:36.063Z,14.90
2018-07-23T22:51:06.265Z,14.90
2018-07-23T22:53:36.394Z,14.50
2018-07-23T22:56:06.685Z,15.50
2018-07-23T22:58:37.726Z,15.20
2018-07-23T23:01:07.854Z,14.90
2018-07-23T23:03:38.144Z,15.77
2018-07-23T23:06:08.310Z,15.60
2018-07-23T23:08:38.177Z,16.47
2018-07-23T23:11:08.768Z,19.83
2018-07-23T23:13:38.840Z,19.50
2018-07-23T23:16:09.461Z,17.37
2018-07-23T23:18:39.803Z,16.20
2018-07-23T23:21:10.043Z,16.13
2018-07-23T23:23:42.207Z,14.97
2018-07-23T23:26:13.253Z,15.03
2018-07-23T23:28:43.334Z,14.97
2018-07-23T23:31:14.417Z,15.20
2018-07-23T23:33:44.617Z,14.60
2018-07-23T23:36:14.720Z,14.97
2018-07-23T23:38:46.809Z,15.97
2018-07-23T23:41:16.660Z,17.97
2018-07-23T23:43:46.694Z,18.50
2018-07-23T23:46:16.822Z,17.87
2018-07-23T23:48:47.034Z,18.10
2018-07-23T23:51:17.111Z,19.73
2018-07-23T23:53:48.207Z,18.93
2018-07-23T23:56:21.172Z,18.60
2018-07-23T23:58:51.257Z,18.83
